createdAt,value
2022-08-08T00:09:12.102Z,0.70
2022-08-08T00:23:11.672Z,0.60
2022-08-08T00:37:16.471Z,0.50
2022-08-08T00:51:15.117Z,0.70
2022-08-08T01:05:11.687Z,0.70
2022-08-08T01:19:13.927Z,0.50
2022-08-08T01:33:16.498Z,0.60
2022-08-08T01:47:55.546Z,0.70
2022-08-08T02:01:15.686Z,0.60
2022-08-08T02:15:12.407Z,0.60
2022-08-08T02:29:14.786Z,0.60
2022-08-08T02:44:36.318Z,0.70
2022-08-08T02:57:12.316Z,0.70
2022-08-08T03:11:13.689Z,0.70
2022-08-08T03:25:15.015Z,0.65
2022-08-08T03:39:15.448Z,0.70
2022-08-08T03:53:11.735Z,0.60
2022-08-08T04:08:11.725Z,0.70
2022-08-08T04:23:11.735Z,0.80
2022-08-08T04:38:11.953Z,0.90
2022-08-08T04:53:14.404Z,0.80
2022-08-08T05:08:12.625Z,0.80
2022-08-08T05:23:11.925Z,0.80
2022-08-08T05:38:21.988Z,0.90
2022-08-08T05:53:23.399Z,0.90
2022-08-08T06:08:28.397Z,0.70
2022-08-08T06:23:11.941Z,0.80
2022-08-08T06:38:14.304Z,0.80
2022-08-08T06:53:14.436Z,0.60
2022-08-08T07:08:12.006Z,0.80
2022-08-08T07:23:12.010Z,0.70
2022-08-08T07:38:18.569Z,0.70
2022-08-08T07:53:12.092Z,0.70
2022-08-08T08:08:12.596Z,0.60
2022-08-08T08:23:12.657Z,0.70
2022-08-08T08:38:15.930Z,0.70
2022-08-08T08:53:28.564Z,0.90
2022-08-08T09:08:18.515Z,0.70
2022-08-08T09:23:17.477Z,0.60
2022-08-08T09:38:17.616Z,0.70
2022-08-08T09:53:24.564Z,0.70
2022-08-08T10:08:12.702Z,0.60
2022-08-08T10:23:13.122Z,0.70
2022-08-08T10:39:13.951Z,0.80
2022-08-08T10:40:49.634Z,0.70
2022-08-08T10:54:49.614Z,0.80
2022-08-08T11:10:49.762Z,1.00
2022-08-08T11:25:52.384Z,0.90
2022-08-08T11:41:50.583Z,0.80
2022-08-08T11:56:56.229Z,1.10
2022-08-08T12:11:49.757Z,1.00
2022-08-08T12:26:50.228Z,1.30
2022-08-08T12:41:56.994Z,1.40
2022-08-08T12:56:50.266Z,1.40
2022-08-08T13:12:18.149Z,1.70
2022-08-08T13:26:50.658Z,1.60
2022-08-08T13:41:54.745Z,1.80
2022-08-08T13:56:53.736Z,1.80
2022-08-08T14:11:50.440Z,1.70
2022-08-08T14:26:50.433Z,1.80
2022-08-08T14:41:54.217Z,1.80
2022-08-08T14:56:50.429Z,1.70
2022-08-08T15:11:52.763Z,1.70
2022-08-08T15:26:53.078Z,1.70
2022-08-08T15:41:51.242Z,1.70
2022-08-08T15:56:50.531Z,1.70
2022-08-08T16:13:06.734Z,1.80
2022-08-08T16:26:50.703Z,1.80
2022-08-08T16:41:51.021Z,1.60
2022-08-08T16:57:02.129Z,1.70
2022-08-08T17:11:52.328Z,1.60
2022-08-08T17:26:50.730Z,1.60
2022-08-08T17:56:50.775Z,1.60
2022-08-08T18:11:51.117Z,1.60
2022-08-08T18:26:53.507Z,1.60
2022-08-08T18:41:51.330Z,1.60
2022-08-08T18:56:50.780Z,1.50
2022-08-08T19:10:50.789Z,1.80
2022-08-08T19:25:04.748Z,1.70
2022-08-08T19:38:50.795Z,1.60
2022-08-08T19:52:54.358Z,1.60
2022-08-08T20:06:51.026Z,1.60
2022-08-08T20:20:50.834Z,1.80
2022-08-08T20:34:53.684Z,1.70
2022-08-08T20:48:51.343Z,1.60
2022-08-08T21:02:52.639Z,1.70
2022-08-08T21:16:51.048Z,1.80
2022-08-08T21:30:52.036Z,1.70
2022-08-08T21:44:58.293Z,1.60
2022-08-08T21:58:54.696Z,1.80
2022-08-08T22:12:51.251Z,1.80
2022-08-08T22:27:01.032Z,1.70
2022-08-08T22:40:51.180Z,1.70
2022-08-08T22:54:56.215Z,1.80
2022-08-08T23:08:56.184Z,1.80
2022-08-08T23:22:51.199Z,1.80
2022-08-08T23:36:51.198Z,1.90
2022-08-08T23:50:52.188Z,1.70
